Pagrindinis puslapis
METAR-TAF:

METAR-TAF

Oro uostai :

Splitas, Kroatija

platuma: 43-32N, ilguma: 016-18E, Aukštis: 19 m

Dabartinis oras

Ataskaita buvo paskelbta 35 minutes, ne 06:30 UTC
Vėjas 3 kt iš Šiaurės/Šiaurės Rytų
Temperatūra 10°C
Drėgmė 93%
Slėgis 1019 hPa
Matomumas 10 km arba daugiau
Išsisklaidę debesys ne aukštis 3500 ft
Su prošvaistėmis ne aukštis 5000 ft

METAR: LDSP 070630Z 02003KT 9999 SCT035 BKN050 10/09 Q1019 NOSIG

Laikas: 08:05 (07:05 UTC)

Prognozė

Ataskaita buvo paskelbta 1 valandą ir 40 minutes, ne 05:25 UTC
Prognozė galioja nuo 07 metu 06 UTC su 08 metu 06 UTC
Vėjas 5 kt iš Šiaurės/Šiaurės Vakarų
Matomumas 10 km arba daugiau
Išsisklaidę debesys ne aukštis 5000 ft
Laikinai
nuo 07 metu 06 UTC su 07 metu 10 UTC
lietus
Laikinai
nuo 07 metu 18 UTC su 08 metu 06 UTC
Vėjas 8 kt iš Šiaurės Rytų

TAF: LDSP 070525Z 0706/0806 34005KT 9999 SCT050 TX13/0712Z TN06/0805Z TEMPO 0706/0710 RA TEMPO 0718/0806 05008KT

Orai ataskaitas ir orų prognozės (METAR, TAF).

turimą stotys yra geltonos ir raudonos taškus žemėlapyje.

Perkelti pele per norėdami pamatyti stoties vardą.

Tada spustelėkite, norėdami matyti oro stebėjimo ir prognozės.

Norėdami pakeisti žemėlapį: spustelėkite ant žalios mygtukų su juodo kryžiaus žemyn,; žalią mygtuką su brūkšneliu, jei norite nutolinti; arba žalių rodyklių gretimoms žemėlapius.


METAR-TAF: